RJFM

Miyazaki Airport

Airport
ICAO code
RJFM
IATA Code
KMI
Summary
ICAO Region
APAC
ICAO Territory
Location

Miyazaki, Kyushu

Serving
Miyazaki
Elevation
19 ft
Coordinates
31° 52' 38" N , 131° 26' 55" E
KCC
Metar
Observation
RJFM 090600Z 05008KT 9999 FEW035 BKN120 13/04 Q1025
Station
Miyazaki Airport
Date/Time
2023-02-09 06:00:00
Wind direction
50°
Wind speed
08 kts
Lowest cloud amount
few clouds
Temperature
13°C
Dew point
4°C
Humidity
54%
QNH
1025 hPa
Weather condition
n/a

Miyazaki Airport is an airport located 3.2 km south southeast of Miyazaki, a city in the Miyazaki Prefecture of Japan.

Climatology

Humid Sub-tropical climate (Köppen climate classification Cfa)

Runways

Designator Length Width Surface Rops
9/27 2499 46 ASP Yes/Yes

Airport map

Aerial View

SKYbrary Partners:

Safety knowledge contributed by: